createdAt,value
2022-12-01T00:07:49.217Z,2.93
2022-12-01T00:17:52.489Z,2.48
2022-12-01T00:27:55.008Z,2.27
2022-12-01T00:37:58.020Z,1.73
2022-12-01T00:48:01.544Z,1.52
2022-12-01T00:58:04.592Z,1.39
2022-12-01T01:08:10.757Z,1.19
2022-12-01T01:18:12.894Z,1.16
2022-12-01T01:28:15.673Z,1.08
2022-12-01T01:38:17.433Z,1.02
2022-12-01T01:48:19.103Z,0.82
2022-12-01T01:58:21.050Z,0.72
2022-12-01T02:08:22.961Z,0.58
2022-12-01T02:19:09.935Z,0.41
2022-12-01T02:29:36.415Z,0.35
2022-12-01T02:39:51.579Z,0.31
2022-12-01T02:49:56.363Z,0.20
2022-12-01T02:59:59.899Z,0.09
2022-12-01T03:10:13.332Z,0.09
2022-12-01T03:20:25.079Z,-0.06
2022-12-01T03:30:30.005Z,-0.13
2022-12-01T03:40:36.798Z,-0.24
2022-12-01T03:51:02.961Z,-0.14
2022-12-01T04:01:05.523Z,-0.16
2022-12-01T04:11:32.205Z,0.00
2022-12-01T04:21:41.187Z,-0.31
2022-12-01T04:31:42.970Z,-0.44
2022-12-01T04:41:45.782Z,-0.60
2022-12-01T04:51:49.147Z,-0.57
2022-12-01T05:01:50.984Z,-0.51
2022-12-01T05:11:52.664Z,-0.61
2022-12-01T05:21:54.363Z,-0.83
2022-12-01T05:31:59.460Z,-0.93
2022-12-01T05:42:01.115Z,-1.07
2022-12-01T05:52:08.510Z,-1.14
2022-12-01T06:02:10.652Z,-1.13
2022-12-01T06:12:14.270Z,-1.30
2022-12-01T06:22:16.948Z,-1.01
2022-12-01T06:32:19.531Z,-1.08
2022-12-01T06:42:21.243Z,-0.98
2022-12-01T06:52:28.678Z,-0.79
2022-12-01T07:02:30.548Z,-0.82
2022-12-01T07:12:32.837Z,-0.25
2022-12-01T07:22:34.638Z,-0.01
2022-12-01T07:32:48.755Z,0.44
2022-12-01T07:42:53.495Z,0.90
2022-12-01T07:52:55.481Z,1.43
2022-12-01T08:02:59.078Z,1.88
2022-12-01T08:13:00.766Z,2.57
2022-12-01T08:23:02.994Z,3.52
2022-12-01T08:33:04.711Z,3.85
2022-12-01T08:43:06.369Z,4.37
2022-12-01T08:53:08.986Z,5.65
2022-12-01T09:03:12.734Z,7.92
2022-12-01T09:13:14.332Z,8.99
2022-12-01T09:23:18.014Z,9.59
2022-12-01T09:33:20.791Z,11.16
2022-12-01T09:43:38.895Z,10.88
2022-12-01T09:53:42.042Z,9.82
2022-12-01T10:03:53.336Z,10.20
2022-12-01T10:13:55.039Z,11.71
2022-12-01T10:24:10.079Z,10.60
2022-12-01T10:34:16.749Z,13.24
2022-12-01T10:44:19.209Z,14.74
2022-12-01T10:54:21.905Z,17.55
2022-12-01T11:04:51.293Z,17.04
2022-12-01T11:14:56.589Z,17.13
2022-12-01T11:25:04.332Z,18.42
2022-12-01T11:35:19.927Z,17.78
2022-12-01T11:45:21.516Z,18.45
2022-12-01T11:55:35.286Z,19.46
2022-12-01T12:05:49.258Z,21.19
2022-12-01T12:16:14.868Z,17.99
2022-12-01T12:26:43.196Z,13.06
2022-12-01T12:37:02.812Z,12.17
2022-12-01T12:47:36.659Z,14.44
2022-12-01T12:58:06.665Z,13.57
2022-12-01T13:08:45.896Z,16.01
2022-12-01T13:19:03.343Z,15.02
2022-12-01T13:29:08.516Z,11.24
2022-12-01T13:39:25.462Z,10.16
2022-12-01T13:49:51.876Z,9.45
2022-12-01T14:00:04.947Z,8.49
2022-12-01T14:10:16.555Z,7.80
2022-12-01T14:20:23.002Z,7.89
2022-12-01T14:30:40.489Z,6.64
2022-12-01T14:40:53.487Z,5.93
2022-12-01T14:51:24.529Z,5.65
2022-12-01T15:01:42.685Z,5.28
2022-12-01T15:11:55.901Z,5.15
2022-12-01T15:21:58.448Z,4.95
2022-12-01T15:32:12.712Z,5.04
2022-12-01T15:42:36.559Z,4.89
2022-12-01T15:52:45.612Z,4.63
2022-12-01T16:02:59.460Z,4.70
2022-12-01T16:13:35.499Z,4.46
2022-12-01T16:23:39.191Z,4.28
2022-12-01T16:33:59.929Z,3.89
2022-12-01T16:44:27.657Z,3.53
2022-12-01T16:54:26.664Z,3.79
2022-12-01T17:04:28.703Z,3.79
2022-12-01T17:14:31.512Z,3.63
2022-12-01T17:24:34.322Z,3.47
2022-12-01T17:34:36.391Z,3.45
2022-12-01T17:44:41.406Z,2.98
2022-12-01T17:54:44.519Z,2.83
2022-12-01T18:04:46.880Z,2.67
2022-12-01T18:14:51.098Z,2.45
2022-12-01T18:24:56.738Z,2.42
2022-12-01T18:34:58.920Z,2.26
2022-12-01T18:45:02.371Z,2.27
2022-12-01T18:55:05.144Z,2.34
2022-12-01T19:05:06.974Z,2.09
2022-12-01T19:15:20.057Z,1.96
2022-12-01T19:25:40.952Z,2.11
2022-12-01T19:35:46.789Z,1.87
2022-12-01T19:45:49.312Z,2.01
2022-12-01T19:55:52.312Z,1.96
2022-12-01T20:06:28.963Z,2.04
2022-12-01T20:16:32.650Z,1.83
2022-12-01T20:26:43.725Z,1.83
2022-12-01T20:47:04.511Z,1.55
2022-12-01T20:57:08.134Z,1.22
2022-12-01T21:07:10.074Z,0.94
2022-12-01T21:17:26.646Z,0.78
2022-12-01T21:27:29.850Z,0.76
2022-12-01T21:37:33.599Z,0.85
2022-12-01T21:47:35.359Z,0.71
2022-12-01T21:57:43.042Z,0.73
2022-12-01T22:07:45.285Z,0.54
2022-12-01T22:17:47.886Z,0.55
2022-12-01T22:27:59.732Z,0.80
2022-12-01T22:38:11.676Z,0.92
2022-12-01T22:48:32.860Z,1.21
2022-12-01T22:58:40.900Z,1.34
2022-12-01T23:08:42.525Z,1.29
2022-12-01T23:18:44.152Z,1.44
2022-12-01T23:28:46.013Z,1.54
2022-12-01T23:38:51.813Z,1.55
2022-12-01T23:48:58.647Z,1.59
2022-12-01T23:59:01.487Z,1.49
